sensor_id;sensor_type;location;lat;lon;timestamp;pressure;altitude;pressure_sealevel;temperature
15680;BMP180;15488;48.114;11.532;2022-12-10T00:01:35;93957.00;;;10.10
15680;BMP180;15488;48.114;11.532;2022-12-10T00:04:03;93963.00;;;10.10
15680;BMP180;15488;48.114;11.532;2022-12-10T00:06:33;93967.00;;;10.10
15680;BMP180;15488;48.114;11.532;2022-12-10T00:09:03;93968.00;;;10.10
15680;BMP180;15488;48.114;11.532;2022-12-10T00:11:31;93968.00;;;10.10
15680;BMP180;15488;48.114;11.532;2022-12-10T00:13:59;93965.00;;;10.10
15680;BMP180;15488;48.114;11.532;2022-12-10T00:16:28;93962.00;;;10.10
15680;BMP180;15488;48.114;11.532;2022-12-10T00:18:57;93954.00;;;10.10
15680;BMP180;15488;48.114;11.532;2022-12-10T00:21:26;93955.00;;;10.10
15680;BMP180;15488;48.114;11.532;2022-12-10T00:23:54;93954.00;;;10.10
15680;BMP180;15488;48.114;11.532;2022-12-10T00:26:25;93957.00;;;10.10
15680;BMP180;15488;48.114;11.532;2022-12-10T00:28:53;93949.00;;;10.10
15680;BMP180;15488;48.114;11.532;2022-12-10T00:31:23;93952.00;;;10.10
15680;BMP180;15488;48.114;11.532;2022-12-10T00:33:52;93951.00;;;10.10
15680;BMP180;15488;48.114;11.532;2022-12-10T00:36:22;93954.00;;;10.10
15680;BMP180;15488;48.114;11.532;2022-12-10T00:38:50;93958.00;;;10.10
15680;BMP180;15488;48.114;11.532;2022-12-10T00:41:18;93952.00;;;10.10
15680;BMP180;15488;48.114;11.532;2022-12-10T00:43:47;93951.00;;;10.10
15680;BMP180;15488;48.114;11.532;2022-12-10T00:46:16;93957.00;;;10.10
15680;BMP180;15488;48.114;11.532;2022-12-10T00:48:45;93962.00;;;10.10
15680;BMP180;15488;48.114;11.532;2022-12-10T00:51:14;93958.00;;;10.10
15680;BMP180;15488;48.114;11.532;2022-12-10T00:53:43;93964.00;;;10.10
15680;BMP180;15488;48.114;11.532;2022-12-10T00:56:12;93967.00;;;10.10
15680;BMP180;15488;48.114;11.532;2022-12-10T00:58:41;93986.00;;;10.10
15680;BMP180;15488;48.114;11.532;2022-12-10T01:01:15;93982.00;;;10.10
15680;BMP180;15488;48.114;11.532;2022-12-10T01:03:43;93987.00;;;10.10
15680;BMP180;15488;48.114;11.532;2022-12-10T01:06:12;93992.00;;;10.10
15680;BMP180;15488;48.114;11.532;2022-12-10T01:08:40;93994.00;;;10.10
15680;BMP180;15488;48.114;11.532;2022-12-10T01:11:08;93992.00;;;10.10
15680;BMP180;15488;48.114;11.532;2022-12-10T01:13:37;93981.00;;;10.10
15680;BMP180;15488;48.114;11.532;2022-12-10T01:16:07;93981.00;;;10.00
15680;BMP180;15488;48.114;11.532;2022-12-10T01:18:36;93981.00;;;10.00
15680;BMP180;15488;48.114;11.532;2022-12-10T01:21:05;93983.00;;;10.00
15680;BMP180;15488;48.114;11.532;2022-12-10T01:23:34;93982.00;;;10.00
15680;BMP180;15488;48.114;11.532;2022-12-10T01:26:03;93983.00;;;10.10
15680;BMP180;15488;48.114;11.532;2022-12-10T01:28:31;93983.00;;;10.10
15680;BMP180;15488;48.114;11.532;2022-12-10T01:31:03;93977.00;;;10.00
15680;BMP180;15488;48.114;11.532;2022-12-10T01:33:32;93978.00;;;10.00
15680;BMP180;15488;48.114;11.532;2022-12-10T01:36:04;93986.00;;;10.00
15680;BMP180;15488;48.114;11.532;2022-12-10T01:38:32;93990.00;;;10.00
15680;BMP180;15488;48.114;11.532;2022-12-10T01:41:00;93985.00;;;10.00
15680;BMP180;15488;48.114;11.532;2022-12-10T01:43:29;93990.00;;;10.00
15680;BMP180;15488;48.114;11.532;2022-12-10T01:46:14;93996.00;;;10.00
15680;BMP180;15488;48.114;11.532;2022-12-10T01:48:42;93997.00;;;10.00
15680;BMP180;15488;48.114;11.532;2022-12-10T01:51:11;94013.00;;;10.00
15680;BMP180;15488;48.114;11.532;2022-12-10T01:53:39;94010.00;;;10.00
15680;BMP180;15488;48.114;11.532;2022-12-10T01:56:08;94005.00;;;10.00
15680;BMP180;15488;48.114;11.532;2022-12-10T01:58:36;93999.00;;;10.00
15680;BMP180;15488;48.114;11.532;2022-12-10T02:01:08;94002.00;;;10.00
15680;BMP180;15488;48.114;11.532;2022-12-10T02:03:46;94018.00;;;10.00
15680;BMP180;15488;48.114;11.532;2022-12-10T02:06:29;94019.00;;;9.90
15680;BMP180;15488;48.114;11.532;2022-12-10T02:09:06;94014.00;;;9.90
15680;BMP180;15488;48.114;11.532;2022-12-10T02:11:41;94009.00;;;9.90
15680;BMP180;15488;48.114;11.532;2022-12-10T02:14:14;94004.00;;;10.00
15680;BMP180;15488;48.114;11.532;2022-12-10T02:16:47;94021.00;;;10.00
15680;BMP180;15488;48.114;11.532;2022-12-10T02:19:35;94010.00;;;10.00
15680;BMP180;15488;48.114;11.532;2022-12-10T02:22:10;94007.00;;;10.00
15680;BMP180;15488;48.114;11.532;2022-12-10T02:24:39;94013.00;;;10.00
15680;BMP180;15488;48.114;11.532;2022-12-10T02:27:15;94006.00;;;10.00
15680;BMP180;15488;48.114;11.532;2022-12-10T02:29:47;94005.00;;;10.00
15680;BMP180;15488;48.114;11.532;2022-12-10T02:32:19;94007.00;;;10.00
15680;BMP180;15488;48.114;11.532;2022-12-10T02:34:52;94001.00;;;10.00
15680;BMP180;15488;48.114;11.532;2022-12-10T02:37:23;93993.00;;;10.00
15680;BMP180;15488;48.114;11.532;2022-12-10T02:39:54;93998.00;;;10.00
15680;BMP180;15488;48.114;11.532;2022-12-10T02:42:22;93989.00;;;10.00
15680;BMP180;15488;48.114;11.532;2022-12-10T02:44:53;93988.00;;;9.70
15680;BMP180;15488;48.114;11.532;2022-12-10T02:47:21;93987.00;;;10.00
15680;BMP180;15488;48.114;11.532;2022-12-10T02:49:53;93985.00;;;10.00
15680;BMP180;15488;48.114;11.532;2022-12-10T02:52:22;93986.00;;;10.10
15680;BMP180;15488;48.114;11.532;2022-12-10T02:54:50;93987.00;;;10.00
15680;BMP180;15488;48.114;11.532;2022-12-10T02:57:40;93992.00;;;10.00
15680;BMP180;15488;48.114;11.532;2022-12-10T03:00:14;93964.00;;;10.00
15680;BMP180;15488;48.114;11.532;2022-12-10T03:02:59;93978.00;;;10.00
15680;BMP180;15488;48.114;11.532;2022-12-10T03:05:35;93980.00;;;10.00
15680;BMP180;15488;48.114;11.532;2022-12-10T03:08:09;93979.00;;;10.00
15680;BMP180;15488;48.114;11.532;2022-12-10T03:10:42;93982.00;;;10.00
15680;BMP180;15488;48.114;11.532;2022-12-10T03:13:15;93981.00;;;10.00
15680;BMP180;15488;48.114;11.532;2022-12-10T03:15:45;93970.00;;;10.00
15680;BMP180;15488;48.114;11.532;2022-12-10T03:18:16;93970.00;;;10.00
15680;BMP180;15488;48.114;11.532;2022-12-10T03:20:45;93971.00;;;10.00
15680;BMP180;15488;48.114;11.532;2022-12-10T03:23:16;93974.00;;;10.00
15680;BMP180;15488;48.114;11.532;2022-12-10T03:25:47;93980.00;;;10.00
15680;BMP180;15488;48.114;11.532;2022-12-10T03:28:18;93977.00;;;10.00
15680;BMP180;15488;48.114;11.532;2022-12-10T03:30:48;93970.00;;;10.00
15680;BMP180;15488;48.114;11.532;2022-12-10T03:33:17;93971.00;;;10.00
15680;BMP180;15488;48.114;11.532;2022-12-10T03:35:45;93970.00;;;10.00
15680;BMP180;15488;48.114;11.532;2022-12-10T03:38:13;93968.00;;;10.10
15680;BMP180;15488;48.114;11.532;2022-12-10T03:40:41;93969.00;;;10.00
15680;BMP180;15488;48.114;11.532;2022-12-10T03:43:10;93976.00;;;10.10
15680;BMP180;15488;48.114;11.532;2022-12-10T03:45:39;93963.00;;;10.10
15680;BMP180;15488;48.114;11.532;2022-12-10T03:48:08;93971.00;;;10.00
15680;BMP180;15488;48.114;11.532;2022-12-10T03:50:36;93973.00;;;10.10
15680;BMP180;15488;48.114;11.532;2022-12-10T03:53:03;93963.00;;;10.10
15680;BMP180;15488;48.114;11.532;2022-12-10T03:55:31;93968.00;;;10.10
15680;BMP180;15488;48.114;11.532;2022-12-10T03:57:58;93962.00;;;10.20
15680;BMP180;15488;48.114;11.532;2022-12-10T04:00:26;93964.00;;;10.10
15680;BMP180;15488;48.114;11.532;2022-12-10T04:02:53;93963.00;;;10.10
15680;BMP180;15488;48.114;11.532;2022-12-10T04:05:22;93962.00;;;10.10
15680;BMP180;15488;48.114;11.532;2022-12-10T04:07:50;93967.00;;;10.10
15680;BMP180;15488;48.114;11.532;2022-12-10T04:10:17;93976.00;;;10.10
15680;BMP180;15488;48.114;11.532;2022-12-10T04:12:45;93979.00;;;10.10
15680;BMP180;15488;48.114;11.532;2022-12-10T04:15:33;93985.00;;;10.10
15680;BMP180;15488;48.114;11.532;2022-12-10T04:18:17;93979.00;;;10.10
15680;BMP180;15488;48.114;11.532;2022-12-10T04:20:46;93989.00;;;10.10
15680;BMP180;15488;48.114;11.532;2022-12-10T04:23:31;93974.00;;;10.10
15680;BMP180;15488;48.114;11.532;2022-12-10T04:26:15;93981.00;;;10.10
15680;BMP180;15488;48.114;11.532;2022-12-10T04:29:00;93983.00;;;10.10
15680;BMP180;15488;48.114;11.532;2022-12-10T04:31:28;93984.00;;;10.10
15680;BMP180;15488;48.114;11.532;2022-12-10T04:33:55;93984.00;;;10.10
15680;BMP180;15488;48.114;11.532;2022-12-10T04:36:24;93982.00;;;10.10
15680;BMP180;15488;48.114;11.532;2022-12-10T04:38:51;93981.00;;;10.10
15680;BMP180;15488;48.114;11.532;2022-12-10T04:41:19;93991.00;;;10.10
15680;BMP180;15488;48.114;11.532;2022-12-10T04:43:46;93991.00;;;10.10
15680;BMP180;15488;48.114;11.532;2022-12-10T04:46:13;93998.00;;;10.10
15680;BMP180;15488;48.114;11.532;2022-12-10T04:48:41;93996.00;;;10.10
15680;BMP180;15488;48.114;11.532;2022-12-10T04:51:08;94004.00;;;10.10
15680;BMP180;15488;48.114;11.532;2022-12-10T04:53:37;94000.00;;;10.10
15680;BMP180;15488;48.114;11.532;2022-12-10T04:56:05;93991.00;;;10.10
15680;BMP180;15488;48.114;11.532;2022-12-10T04:58:33;93979.00;;;10.10
15680;BMP180;15488;48.114;11.532;2022-12-10T05:01:02;93980.00;;;10.10
15680;BMP180;15488;48.114;11.532;2022-12-10T05:03:29;93983.00;;;10.10
15680;BMP180;15488;48.114;11.532;2022-12-10T05:06:01;93983.00;;;10.10
15680;BMP180;15488;48.114;11.532;2022-12-10T05:08:28;93988.00;;;10.10
15680;BMP180;15488;48.114;11.532;2022-12-10T05:11:01;93993.00;;;10.10
15680;BMP180;15488;48.114;11.532;2022-12-10T05:13:29;93987.00;;;10.10
15680;BMP180;15488;48.114;11.532;2022-12-10T05:15:56;93988.00;;;10.10
15680;BMP180;15488;48.114;11.532;2022-12-10T05:18:24;93984.00;;;10.10
15680;BMP180;15488;48.114;11.532;2022-12-10T05:20:51;93980.00;;;10.10
15680;BMP180;15488;48.114;11.532;2022-12-10T05:23:19;93985.00;;;10.10
15680;BMP180;15488;48.114;11.532;2022-12-10T05:26:06;93975.00;;;10.10
15680;BMP180;15488;48.114;11.532;2022-12-10T05:28:35;93975.00;;;10.10
15680;BMP180;15488;48.114;11.532;2022-12-10T05:31:03;93974.00;;;10.10
15680;BMP180;15488;48.114;11.532;2022-12-10T05:33:31;93977.00;;;10.10
15680;BMP180;15488;48.114;11.532;2022-12-10T05:36:01;93983.00;;;10.10
15680;BMP180;15488;48.114;11.532;2022-12-10T05:38:30;93992.00;;;10.10
15680;BMP180;15488;48.114;11.532;2022-12-10T05:41:01;93990.00;;;10.10
15680;BMP180;15488;48.114;11.532;2022-12-10T05:43:31;94002.00;;;10.10
15680;BMP180;15488;48.114;11.532;2022-12-10T05:46:02;94000.00;;;10.10
15680;BMP180;15488;48.114;11.532;2022-12-10T05:48:30;93995.00;;;10.10
15680;BMP180;15488;48.114;11.532;2022-12-10T05:50:58;93989.00;;;10.10
15680;BMP180;15488;48.114;11.532;2022-12-10T05:53:29;93996.00;;;10.10
15680;BMP180;15488;48.114;11.532;2022-12-10T05:56:00;94002.00;;;10.10
15680;BMP180;15488;48.114;11.532;2022-12-10T05:58:29;93999.00;;;10.10
15680;BMP180;15488;48.114;11.532;2022-12-10T06:00:57;94000.00;;;10.10
15680;BMP180;15488;48.114;11.532;2022-12-10T06:03:26;94015.00;;;10.10
15680;BMP180;15488;48.114;11.532;2022-12-10T06:05:53;94009.00;;;10.10
15680;BMP180;15488;48.114;11.532;2022-12-10T06:08:21;94007.00;;;10.10
15680;BMP180;15488;48.114;11.532;2022-12-10T06:10:49;94011.00;;;10.10
15680;BMP180;15488;48.114;11.532;2022-12-10T06:13:16;94018.00;;;10.10
15680;BMP180;15488;48.114;11.532;2022-12-10T06:15:45;94013.00;;;10.20
15680;BMP180;15488;48.114;11.532;2022-12-10T06:18:12;94006.00;;;10.10
15680;BMP180;15488;48.114;11.532;2022-12-10T06:20:40;93993.00;;;10.10
15680;BMP180;15488;48.114;11.532;2022-12-10T06:23:08;93997.00;;;10.20
15680;BMP180;15488;48.114;11.532;2022-12-10T06:25:38;94007.00;;;10.10
15680;BMP180;15488;48.114;11.532;2022-12-10T06:28:06;94005.00;;;10.20
15680;BMP180;15488;48.114;11.532;2022-12-10T06:30:33;94003.00;;;10.20
15680;BMP180;15488;48.114;11.532;2022-12-10T06:33:02;94004.00;;;10.10
15680;BMP180;15488;48.114;11.532;2022-12-10T06:35:30;94005.00;;;10.10
15680;BMP180;15488;48.114;11.532;2022-12-10T06:37:57;94005.00;;;10.10
15680;BMP180;15488;48.114;11.532;2022-12-10T06:40:25;94004.00;;;10.10
15680;BMP180;15488;48.114;11.532;2022-12-10T06:42:52;94001.00;;;10.10
15680;BMP180;15488;48.114;11.532;2022-12-10T06:45:20;94009.00;;;10.10
15680;BMP180;15488;48.114;11.532;2022-12-10T06:47:47;94013.00;;;10.10
15680;BMP180;15488;48.114;11.532;2022-12-10T06:50:16;94010.00;;;10.10
15680;BMP180;15488;48.114;11.532;2022-12-10T06:52:43;94000.00;;;10.10
15680;BMP180;15488;48.114;11.532;2022-12-10T06:55:11;94003.00;;;10.10
15680;BMP180;15488;48.114;11.532;2022-12-10T06:57:38;94013.00;;;10.10
15680;BMP180;15488;48.114;11.532;2022-12-10T07:00:07;94003.00;;;10.10
15680;BMP180;15488;48.114;11.532;2022-12-10T07:02:34;93999.00;;;10.10
15680;BMP180;15488;48.114;11.532;2022-12-10T07:05:02;94003.00;;;10.10
15680;BMP180;15488;48.114;11.532;2022-12-10T07:07:31;94010.00;;;10.10
15680;BMP180;15488;48.114;11.532;2022-12-10T07:09:58;94003.00;;;10.10
15680;BMP180;15488;48.114;11.532;2022-12-10T07:12:25;94009.00;;;10.10
15680;BMP180;15488;48.114;11.532;2022-12-10T07:14:53;94020.00;;;10.10
15680;BMP180;15488;48.114;11.532;2022-12-10T07:17:21;94020.00;;;10.10
15680;BMP180;15488;48.114;11.532;2022-12-10T07:19:48;94009.00;;;10.10
15680;BMP180;15488;48.114;11.532;2022-12-10T07:22:16;94017.00;;;10.10
15680;BMP180;15488;48.114;11.532;2022-12-10T07:24:44;94016.00;;;10.10
15680;BMP180;15488;48.114;11.532;2022-12-10T07:27:12;94029.00;;;10.10
15680;BMP180;15488;48.114;11.532;2022-12-10T07:29:39;94033.00;;;10.10
15680;BMP180;15488;48.114;11.532;2022-12-10T07:32:07;94031.00;;;10.10
15680;BMP180;15488;48.114;11.532;2022-12-10T07:34:34;94030.00;;;10.10
15680;BMP180;15488;48.114;11.532;2022-12-10T07:37:02;94036.00;;;10.10
15680;BMP180;15488;48.114;11.532;2022-12-10T07:39:29;94029.00;;;10.10
15680;BMP180;15488;48.114;11.532;2022-12-10T07:41:58;94027.00;;;10.10
15680;BMP180;15488;48.114;11.532;2022-12-10T07:44:26;94023.00;;;10.10
15680;BMP180;15488;48.114;11.532;2022-12-10T07:46:54;94020.00;;;10.10
15680;BMP180;15488;48.114;11.532;2022-12-10T07:49:22;94020.00;;;10.10
15680;BMP180;15488;48.114;11.532;2022-12-10T07:51:50;94020.00;;;10.10
15680;BMP180;15488;48.114;11.532;2022-12-10T07:54:18;94021.00;;;10.20
15680;BMP180;15488;48.114;11.532;2022-12-10T07:56:46;94026.00;;;10.20
15680;BMP180;15488;48.114;11.532;2022-12-10T07:59:15;94013.00;;;10.20
15680;BMP180;15488;48.114;11.532;2022-12-10T08:01:42;94022.00;;;10.20
15680;BMP180;15488;48.114;11.532;2022-12-10T08:04:10;94019.00;;;10.20
15680;BMP180;15488;48.114;11.532;2022-12-10T08:06:37;94028.00;;;10.20
15680;BMP180;15488;48.114;11.532;2022-12-10T08:09:05;94031.00;;;10.20
15680;BMP180;15488;48.114;11.532;2022-12-10T08:11:32;94006.00;;;10.20
15680;BMP180;15488;48.114;11.532;2022-12-10T08:14:00;94020.00;;;10.20
15680;BMP180;15488;48.114;11.532;2022-12-10T08:16:29;94022.00;;;10.30
15680;BMP180;15488;48.114;11.532;2022-12-10T08:18:59;94022.00;;;10.30
15680;BMP180;15488;48.114;11.532;2022-12-10T08:21:28;94028.00;;;10.20
15680;BMP180;15488;48.114;11.532;2022-12-10T08:23:56;94029.00;;;10.30
15680;BMP180;15488;48.114;11.532;2022-12-10T08:26:26;94033.00;;;10.30
15680;BMP180;15488;48.114;11.532;2022-12-10T08:28:54;94036.00;;;10.30
15680;BMP180;15488;48.114;11.532;2022-12-10T08:31:23;94047.00;;;10.30
15680;BMP180;15488;48.114;11.532;2022-12-10T08:33:52;94037.00;;;10.40
15680;BMP180;15488;48.114;11.532;2022-12-10T08:36:21;94040.00;;;10.40
15680;BMP180;15488;48.114;11.532;2022-12-10T08:38:48;94034.00;;;10.40
15680;BMP180;15488;48.114;11.532;2022-12-10T08:41:18;94036.00;;;10.40
15680;BMP180;15488;48.114;11.532;2022-12-10T08:43:45;94035.00;;;10.50
15680;BMP180;15488;48.114;11.532;2022-12-10T08:46:14;94039.00;;;10.40
15680;BMP180;15488;48.114;11.532;2022-12-10T08:48:42;94037.00;;;10.50
15680;BMP180;15488;48.114;11.532;2022-12-10T08:51:13;94038.00;;;10.50
15680;BMP180;15488;48.114;11.532;2022-12-10T08:53:41;94044.00;;;10.40
15680;BMP180;15488;48.114;11.532;2022-12-10T08:56:09;94042.00;;;10.50
15680;BMP180;15488;48.114;11.532;2022-12-10T08:58:36;94048.00;;;10.50
15680;BMP180;15488;48.114;11.532;2022-12-10T09:01:07;94049.00;;;10.40
15680;BMP180;15488;48.114;11.532;2022-12-10T09:03:35;94043.00;;;10.50
15680;BMP180;15488;48.114;11.532;2022-12-10T09:06:04;94041.00;;;10.50
15680;BMP180;15488;48.114;11.532;2022-12-10T09:08:33;94048.00;;;10.50
15680;BMP180;15488;48.114;11.532;2022-12-10T09:11:05;94056.00;;;10.50
15680;BMP180;15488;48.114;11.532;2022-12-10T09:13:33;94049.00;;;10.40
15680;BMP180;15488;48.114;11.532;2022-12-10T09:16:01;94056.00;;;10.40
15680;BMP180;15488;48.114;11.532;2022-12-10T09:18:28;94068.00;;;10.40
15680;BMP180;15488;48.114;11.532;2022-12-10T09:20:55;94063.00;;;10.50
15680;BMP180;15488;48.114;11.532;2022-12-10T09:23:23;94065.00;;;10.50
15680;BMP180;15488;48.114;11.532;2022-12-10T09:25:52;94067.00;;;10.50
15680;BMP180;15488;48.114;11.532;2022-12-10T09:28:19;94066.00;;;10.40
15680;BMP180;15488;48.114;11.532;2022-12-10T09:30:55;94066.00;;;10.40
15680;BMP180;15488;48.114;11.532;2022-12-10T09:33:23;94070.00;;;10.00
15680;BMP180;15488;48.114;11.532;2022-12-10T09:35:51;94065.00;;;10.40
15680;BMP180;15488;48.114;11.532;2022-12-10T09:38:18;94060.00;;;10.40
15680;BMP180;15488;48.114;11.532;2022-12-10T09:40:49;94068.00;;;10.40
15680;BMP180;15488;48.114;11.532;2022-12-10T09:43:22;94069.00;;;10.40
15680;BMP180;15488;48.114;11.532;2022-12-10T09:46:01;94076.00;;;10.40
15680;BMP180;15488;48.114;11.532;2022-12-10T09:48:37;94069.00;;;10.40
15680;BMP180;15488;48.114;11.532;2022-12-10T09:51:12;94057.00;;;10.40
15680;BMP180;15488;48.114;11.532;2022-12-10T09:53:42;94064.00;;;10.50
15680;BMP180;15488;48.114;11.532;2022-12-10T09:56:19;94072.00;;;10.40
15680;BMP180;15488;48.114;11.532;2022-12-10T09:58:50;94065.00;;;10.40
15680;BMP180;15488;48.114;11.532;2022-12-10T10:01:20;94070.00;;;10.40
15680;BMP180;15488;48.114;11.532;2022-12-10T10:03:50;94067.00;;;10.50
15680;BMP180;15488;48.114;11.532;2022-12-10T10:06:17;94067.00;;;10.50
15680;BMP180;15488;48.114;11.532;2022-12-10T10:08:56;94065.00;;;10.40
15680;BMP180;15488;48.114;11.532;2022-12-10T10:11:27;94059.00;;;10.50
15680;BMP180;15488;48.114;11.532;2022-12-10T10:13:59;94066.00;;;10.50
15680;BMP180;15488;48.114;11.532;2022-12-10T10:16:32;94057.00;;;10.50
15680;BMP180;15488;48.114;11.532;2022-12-10T10:19:03;94061.00;;;10.50
15680;BMP180;15488;48.114;11.532;2022-12-10T10:21:35;94059.00;;;10.50
15680;BMP180;15488;48.114;11.532;2022-12-10T10:24:04;94067.00;;;10.50
15680;BMP180;15488;48.114;11.532;2022-12-10T10:26:32;94066.00;;;10.50
15680;BMP180;15488;48.114;11.532;2022-12-10T10:29:05;94063.00;;;10.50
15680;BMP180;15488;48.114;11.532;2022-12-10T10:31:40;94061.00;;;10.50
15680;BMP180;15488;48.114;11.532;2022-12-10T10:34:22;94058.00;;;10.40
15680;BMP180;15488;48.114;11.532;2022-12-10T10:36:56;94063.00;;;10.40
15680;BMP180;15488;48.114;11.532;2022-12-10T10:39:27;94056.00;;;10.40
15680;BMP180;15488;48.114;11.532;2022-12-10T10:41:57;94059.00;;;10.40
15680;BMP180;15488;48.114;11.532;2022-12-10T10:44:32;94059.00;;;10.40
15680;BMP180;15488;48.114;11.532;2022-12-10T10:47:00;94058.00;;;10.40
15680;BMP180;15488;48.114;11.532;2022-12-10T10:49:30;94048.00;;;10.40
15680;BMP180;15488;48.114;11.532;2022-12-10T10:52:00;94054.00;;;10.40
15680;BMP180;15488;48.114;11.532;2022-12-10T10:54:37;94055.00;;;10.40
15680;BMP180;15488;48.114;11.532;2022-12-10T10:57:12;94048.00;;;10.40
15680;BMP180;15488;48.114;11.532;2022-12-10T10:59:44;94050.00;;;10.50
15680;BMP180;15488;48.114;11.532;2022-12-10T11:02:22;94051.00;;;10.40
15680;BMP180;15488;48.114;11.532;2022-12-10T11:04:52;94057.00;;;10.50
15680;BMP180;15488;48.114;11.532;2022-12-10T11:07:24;94044.00;;;10.50
15680;BMP180;15488;48.114;11.532;2022-12-10T11:09:53;94036.00;;;10.50
15680;BMP180;15488;48.114;11.532;2022-12-10T11:12:32;94036.00;;;10.50
15680;BMP180;15488;48.114;11.532;2022-12-10T11:15:02;94045.00;;;10.50
15680;BMP180;15488;48.114;11.532;2022-12-10T11:17:32;93985.00;;;10.50
15680;BMP180;15488;48.114;11.532;2022-12-10T11:20:02;94045.00;;;10.60
15680;BMP180;15488;48.114;11.532;2022-12-10T11:22:32;94038.00;;;10.50
15680;BMP180;15488;48.114;11.532;2022-12-10T11:25:00;94032.00;;;10.50
15680;BMP180;15488;48.114;11.532;2022-12-10T11:27:38;94037.00;;;10.50
15680;BMP180;15488;48.114;11.532;2022-12-10T11:30:17;94039.00;;;10.50
15680;BMP180;15488;48.114;11.532;2022-12-10T11:33:15;94031.00;;;10.50
15680;BMP180;15488;48.114;11.532;2022-12-10T11:35:54;94038.00;;;10.40
15680;BMP180;15488;48.114;11.532;2022-12-10T11:38:26;94037.00;;;10.50
15680;BMP180;15488;48.114;11.532;2022-12-10T11:41:01;94042.00;;;10.50
15680;BMP180;15488;48.114;11.532;2022-12-10T11:43:51;94033.00;;;10.50
15680;BMP180;15488;48.114;11.532;2022-12-10T11:46:34;94037.00;;;10.40
15680;BMP180;15488;48.114;11.532;2022-12-10T11:49:16;94025.00;;;10.40
15680;BMP180;15488;48.114;11.532;2022-12-10T11:51:51;94033.00;;;10.40
15680;BMP180;15488;48.114;11.532;2022-12-10T11:54:38;94035.00;;;10.40
15680;BMP180;15488;48.114;11.532;2022-12-10T11:57:13;94039.00;;;10.50
15680;BMP180;15488;48.114;11.532;2022-12-10T11:59:48;94043.00;;;10.40
15680;BMP180;15488;48.114;11.532;2022-12-10T12:02:42;94052.00;;;10.40
15680;BMP180;15488;48.114;11.532;2022-12-10T12:05:27;94047.00;;;10.40
15680;BMP180;15488;48.114;11.532;2022-12-10T12:08:06;94044.00;;;10.40
15680;BMP180;15488;48.114;11.532;2022-12-10T12:11:11;94050.00;;;10.50
15680;BMP180;15488;48.114;11.532;2022-12-10T12:13:48;94051.00;;;10.40
15680;BMP180;15488;48.114;11.532;2022-12-10T12:16:23;94047.00;;;10.40
15680;BMP180;15488;48.114;11.532;2022-12-10T12:18:57;94046.00;;;10.40
15680;BMP180;15488;48.114;11.532;2022-12-10T12:21:26;94046.00;;;10.50
15680;BMP180;15488;48.114;11.532;2022-12-10T12:23:56;94051.00;;;10.40
15680;BMP180;15488;48.114;11.532;2022-12-10T12:26:28;94054.00;;;10.40
15680;BMP180;15488;48.114;11.532;2022-12-10T12:29:02;94055.00;;;10.40
15680;BMP180;15488;48.114;11.532;2022-12-10T12:31:37;94057.00;;;10.40
15680;BMP180;15488;48.114;11.532;2022-12-10T12:34:16;94069.00;;;10.30
15680;BMP180;15488;48.114;11.532;2022-12-10T12:36:45;94060.00;;;10.30
15680;BMP180;15488;48.114;11.532;2022-12-10T12:39:21;94066.00;;;10.30
15680;BMP180;15488;48.114;11.532;2022-12-10T12:41:57;94069.00;;;10.30
15680;BMP180;15488;48.114;11.532;2022-12-10T12:44:31;94069.00;;;10.20
15680;BMP180;15488;48.114;11.532;2022-12-10T12:47:18;94075.00;;;10.20
15680;BMP180;15488;48.114;11.532;2022-12-10T12:49:49;94072.00;;;10.20
15680;BMP180;15488;48.114;11.532;2022-12-10T12:52:25;94077.00;;;10.20
15680;BMP180;15488;48.114;11.532;2022-12-10T12:54:55;94087.00;;;10.20
15680;BMP180;15488;48.114;11.532;2022-12-10T12:57:30;94087.00;;;10.20
15680;BMP180;15488;48.114;11.532;2022-12-10T13:00:05;94086.00;;;10.20
15680;BMP180;15488;48.114;11.532;2022-12-10T13:02:47;94084.00;;;10.10
15680;BMP180;15488;48.114;11.532;2022-12-10T13:05:23;94091.00;;;10.10
15680;BMP180;15488;48.114;11.532;2022-12-10T13:08:29;94093.00;;;10.10
15680;BMP180;15488;48.114;11.532;2022-12-10T13:11:00;94094.00;;;10.00
15680;BMP180;15488;48.114;11.532;2022-12-10T13:13:33;94098.00;;;10.00
15680;BMP180;15488;48.114;11.532;2022-12-10T13:16:45;94102.00;;;10.00
15680;BMP180;15488;48.114;11.532;2022-12-10T13:19:24;94095.00;;;10.00
15680;BMP180;15488;48.114;11.532;2022-12-10T13:22:07;94106.00;;;10.00
15680;BMP180;15488;48.114;11.532;2022-12-10T13:24:59;94105.00;;;10.00
15680;BMP180;15488;48.114;11.532;2022-12-10T13:27:30;94108.00;;;9.90
15680;BMP180;15488;48.114;11.532;2022-12-10T13:30:13;94110.00;;;9.90
15680;BMP180;15488;48.114;11.532;2022-12-10T13:32:53;94109.00;;;9.90
15680;BMP180;15488;48.114;11.532;2022-12-10T13:35:30;94120.00;;;9.90
15680;BMP180;15488;48.114;11.532;2022-12-10T13:54:52;94150.00;;;9.80
15680;BMP180;15488;48.114;11.532;2022-12-10T13:57:45;94152.00;;;9.80
15680;BMP180;15488;48.114;11.532;2022-12-10T14:00:17;94158.00;;;9.80
15680;BMP180;15488;48.114;11.532;2022-12-10T14:06:10;94163.00;;;9.80
15680;BMP180;15488;48.114;11.532;2022-12-10T14:08:58;94165.00;;;9.80
15680;BMP180;15488;48.114;11.532;2022-12-10T14:11:30;94166.00;;;9.80
15680;BMP180;15488;48.114;11.532;2022-12-10T14:14:00;94177.00;;;9.80
15680;BMP180;15488;48.114;11.532;2022-12-10T14:16:33;94172.00;;;9.70
15680;BMP180;15488;48.114;11.532;2022-12-10T14:19:13;94180.00;;;9.80
15680;BMP180;15488;48.114;11.532;2022-12-10T14:21:42;94170.00;;;9.80
15680;BMP180;15488;48.114;11.532;2022-12-10T14:24:34;94180.00;;;9.80
15680;BMP180;15488;48.114;11.532;2022-12-10T14:27:15;94191.00;;;9.80
15680;BMP180;15488;48.114;11.532;2022-12-10T14:29:47;94189.00;;;9.80
15680;BMP180;15488;48.114;11.532;2022-12-10T14:32:19;94183.00;;;9.80
15680;BMP180;15488;48.114;11.532;2022-12-10T14:34:51;94189.00;;;9.80
15680;BMP180;15488;48.114;11.532;2022-12-10T14:37:22;94197.00;;;9.80
15680;BMP180;15488;48.114;11.532;2022-12-10T14:39:51;94201.00;;;9.80
15680;BMP180;15488;48.114;11.532;2022-12-10T14:42:23;94203.00;;;9.80